METAR Data
IDs: Format: Raw Decoded Include TAF

Data at: 1949 UTC 14 Dec 2018

KPEZ 141935Z AUTO 33017G28KT 10SM BKN050 16/02 A3011 RMK AO2 T01570015
KPEZ 141915Z AUTO 34019G30KT 10SM SCT050 16/01 A3011 RMK AO2 T01550011
KPEZ 141855Z AUTO 34018G28KT 10SM BKN048 15/01 A3012 RMK AO2 T01480007
KPEZ 141840Z AUTO 34017G22KT 10SM BKN050 14/00 A3012 RMK AO2 T01420001
KPEZ 141815Z AUTO 31019G25KT 10SM SCT048 14/00 A3013 RMK AO2 T01421004
KPEZ 141755Z AUTO 32012G23KT 10SM OVC046 13/00 A3014 RMK AO2 T01330004 10139 20040
KPEZ 141735Z AUTO 34016G23KT 10SM OVC046 13/00 A3015 RMK AO2 T01321001
KPEZ 141715Z AUTO 32016G21KT 10SM OVC044 13/M01 A3016 RMK AO2 T01261009
KPEZ 141655Z AUTO 31015G23KT 10SM OVC044 11/M02 A3016 RMK AO2 T01141019
KPEZ 141635Z AUTO 31013G20KT 10SM OVC044 11/M02 A3016 RMK AO2 T01091019
KPEZ 141615Z AUTO 30013G20KT 10SM OVC042 10/M02 A3016 RMK AO2 T01021024
KPEZ 141555Z AUTO 31017G21KT 10SM OVC042 10/M02 A3015 RMK AO2 T01001025
KPEZ 141535Z AUTO 31012G16KT 10SM OVC042 10/M02 A3013 RMK AO2 T00981022
KPEZ 141515Z AUTO 31011G17KT 10SM OVC042 09/M02 A3013 RMK AO2 T00891025
KPEZ 141455Z AUTO 31011KT 10SM OVC042 08/M02 A3012 RMK AO2 T00821022
KPEZ 141435Z AUTO 31008KT 10SM OVC044 08/M02 A3012 RMK AO2 T00781019
KPEZ 141415Z AUTO 31007KT 10SM OVC044 07/M01 A3011 RMK AO2 T00681015
KPEZ 141355Z AUTO 30008KT 10SM SCT042 06/M01 A3011 RMK AO2 T00601010
KPEZ 141335Z AUTO 30005KT 10SM SCT040 05/00 A3010 RMK AO2 T00461005
KPEZ 141315Z AUTO 29005KT 10SM SCT040 SCT055 04/00 A3010 RMK AO2 T00411004
KPEZ 141255Z AUTO 31004KT 10SM CLR 06/M01 A3009 RMK AO2 T00561006
KPEZ 141235Z AUTO 32004KT 10SM SCT046 06/M01 A3008 RMK AO2 T00641007
KPEZ 141215Z AUTO 34006KT 10SM OVC046 07/M01 A3007 RMK AO2 LTG DSNT NE T00721009
KPEZ 141155Z AUTO 34012G20KT 10SM SCT042 BKN049 08/M01 A3006 RMK AO2 T00771010 10095 20058
KPEZ 141135Z AUTO 34012G22KT 10SM SCT060 08/M01 A3005 RMK AO2 T00801008
KPEZ 141115Z AUTO 32016G26KT 10SM BKN060 09/M01 A3004 RMK AO2 T00851010
KPEZ 141055Z AUTO 33010G14KT 10SM SCT060 08/M02 A3004 RMK AO2 T00771016
KPEZ 141035Z AUTO 32012G15KT 10SM CLR 08/M02 A3003 RMK AO2 T00811020
KPEZ 141015Z AUTO 31009KT 10SM CLR 08/M02 A3003 RMK AO2 T00811021
KPEZ 140955Z AUTO 31011KT 10SM CLR 08/M02 A3002 RMK AO2 T00831020
KPEZ 140935Z AUTO 31011G14KT 10SM CLR 08/M01 A3002 RMK AO2 T00751012
KPEZ 140915Z AUTO 30006KT 10SM CLR 06/00 A3002 RMK AO2 T00641004
KPEZ 140855Z AUTO 30006KT 10SM CLR 06/00 A3002 RMK AO2 T00590000
KPEZ 140835Z AUTO 31006KT 10SM CLR 08/00 A3002 RMK AO2 T00760000
KPEZ 140815Z AUTO 31009G15KT 10SM BKN065 09/00 A3001 RMK AO2 T00880000
KPEZ 140755Z AUTO 30008KT 10SM OVC065 09/01 A3002 RMK AO2 T00900010
KPEZ 140735Z AUTO 31007KT 10SM OVC065 09/01 A3001 RMK AO2 T00910010
KPEZ 140715Z AUTO 32010G16KT 10SM OVC065 10/01 A3001 RMK AO2 T00950007
KPEZ 140655Z AUTO 31014G20KT 10SM OVC065 10/01 A3002 RMK AO2 T00950009
KPEZ 140635Z AUTO 31013G20KT 10SM OVC065 09/01 A3002 RMK AO2 T00900012
KPEZ 140615Z AUTO 31014G20KT 10SM SCT065 08/01 A3002 RMK AO2 T00840013
KPEZ 140555Z AUTO 30015G21KT 10SM CLR 08/01 A3002 RMK AO2 T00830012 10117 20083 402200083
KPEZ 140535Z AUTO 30018G25KT 10SM CLR 09/01 A3003 RMK AO2 T00850012
KPEZ 140515Z AUTO 31020G25KT 10SM CLR 09/01 A3003 RMK AO2 T00850011
KPEZ 140455Z AUTO 31020G30KT 10SM CLR 09/01 A3002 RMK AO2 T00870010
KPEZ 140435Z AUTO 32021G31KT 10SM CLR 09/01 A3002 RMK AO2 T00900009
KPEZ 140415Z AUTO 31020G29KT 10SM CLR 09/01 A3002 RMK AO2 T00920009
KPEZ 140355Z AUTO 32021G27KT 10SM CLR 09/01 A3001 RMK AO2 T00920011
KPEZ 140335Z AUTO 31017G27KT 10SM CLR 09/01 A3002 RMK AO2 T00920013
KPEZ 140315Z AUTO 30014G21KT 10SM CLR 09/01 A3002 RMK AO2 T00920014
KPEZ 140255Z AUTO 31013G23KT 10SM CLR 09/01 A3001 RMK AO2 T00920014
KPEZ 140235Z AUTO 30016G23KT 10SM CLR 09/02 A3001 RMK AO2 T00930015
KPEZ 140215Z AUTO 31016G24KT 10SM SCT045 SCT080 10/02 A3001 RMK AO2 T00950015
KPEZ 140155Z AUTO 31018G25KT 10SM BKN048 BKN080 10/01 A3000 RMK AO2 T01000012
KPEZ 140135Z AUTO 31016G28KT 10SM SCT050 BKN080 10/01 A3000 RMK AO2 T01020011
KPEZ 140115Z AUTO 31019G27KT 10SM CLR 10/01 A2999 RMK AO2 T01000011
KPEZ 140055Z AUTO 31016G23KT 10SM CLR 11/01 A2998 RMK AO2 T01050011
KPEZ 140035Z AUTO 31020G26KT 10SM SCT055 11/01 A2997 RMK AO2 T01080011
KPEZ 140015Z AUTO 31019G29KT 10SM BKN055 11/01 A2996 RMK AO2 T01130011
KPEZ 132355Z AUTO 31017G26KT 10SM SCT055 12/02 A2996 RMK AO2 T01180015 10220 20118
KPEZ 132335Z AUTO 31023G34KT 10SM CLR 12/01 A2994 RMK AO2 T01210011
KPEZ 132315Z AUTO 31026G32KT 10SM CLR 13/01 A2993 RMK AO2 T01300012
KPEZ 132255Z AUTO 30029G38KT 10SM CLR 14/01 A2991 RMK AO2 T01360012
KPEZ 132235Z AUTO 31030G36KT 10SM CLR 14/01 A2989 RMK AO2 T01430010
KPEZ 132215Z AUTO 31026G38KT 10SM CLR 15/01 A2988 RMK AO2 T01500010
KPEZ 132155Z AUTO 31028G40KT 10SM CLR 17/01 A2986 RMK AO2 T01680014
KPEZ 132135Z AUTO 29027G37KT 10SM CLR 18/00 A2984 RMK AO2 T01840001
KPEZ 132115Z AUTO 28026G38KT 10SM CLR 19/M01 A2983 RMK AO2 T01931015
KPEZ 132055Z AUTO 31024G34KT 10SM CLR 20/M01 A2982 RMK AO2 T02001014
KPEZ 132035Z AUTO 31027G37KT 10SM CLR 21/M02 A2981 RMK AO2 T02071025
KPEZ 132015Z AUTO 30024G38KT 10SM CLR 21/M02 A2980 RMK AO2 T02081017
KPEZ 131955Z AUTO 30030G36KT 10SM CLR 21/M01 A2981 RMK AO2 T02121007
KPEZ 131935Z AUTO 30018G35KT 10SM CLR 22/00 A2980 RMK AO2 T02160002
KPEZ 131915Z AUTO 31023G33KT 10SM SCT090 22/02 A2980 RMK AO2 T02200023
KPEZ 131855Z AUTO 31020G30KT 10SM SCT090 21/04 A2980 RMK AO2 T02090036
KPEZ 131835Z AUTO 31020G29KT 10SM CLR 22/05 A2979 RMK AO2 T02150052
KPEZ 131815Z AUTO 32015G22KT 10SM CLR 21/08 A2979 RMK AO2 T02100084
KPEZ 131755Z AUTO 31013G21KT 10SM CLR 20/10 A2980 RMK AO2 T02030097 10205 20086
KPEZ 131735Z AUTO 32013G22KT 10SM CLR 20/10 A2981 RMK AO2 T01990099
KPEZ 131715Z AUTO 32018G24KT 10SM CLR 20/10 A2981 RMK AO2 T01980102
KPEZ 131655Z AUTO 30014G19KT 10SM CLR 20/11 A2982 RMK AO2 T02000110
KPEZ 131635Z AUTO 28012G15KT 10SM CLR 19/11 A2981 RMK AO2 T01910111
KPEZ 131615Z AUTO 27011G15KT 10SM CLR 18/12 A2981 RMK AO2 T01800115
KPEZ 131555Z AUTO 28011KT 10SM CLR 17/12 A2982 RMK AO2 T01690118
KPEZ 131535Z AUTO 29010KT 10SM CLR 16/12 A2982 RMK AO2 T01590119
KPEZ 131515Z AUTO 27008KT 10SM CLR 15/12 A2981 RMK AO2 T01520118
KPEZ 131455Z AUTO 27009G14KT 10SM CLR 14/12 A2981 RMK AO2 T01440120
KPEZ 131435Z AUTO 26005KT 10SM CLR 14/12 A2980 RMK AO2 T01350120
KPEZ 131415Z AUTO 26005KT 10SM CLR 13/12 A2980 RMK AO2 T01300117
KPEZ 131355Z AUTO 25003KT 10SM CLR 12/11 A2979 RMK AO2 T01210113
KPEZ 131335Z AUTO 28004KT 7SM CLR 10/10 A2978 RMK AO2 T01020097
KPEZ 131315Z AUTO 00000KT 10SM CLR 11/10 A2978 RMK AO2 T01070103
KPEZ 131255Z AUTO 25003KT 7SM CLR 11/11 A2977 RMK AO2 T01100107
KPEZ 131235Z AUTO 00000KT 1/4SM FG VV002 10/10 A2977 RMK AO2 T00970095
KPEZ 131215Z AUTO 00000KT 3/4SM BR VV005 09/09 A2977 RMK AO2 T00940092
KPEZ 131155Z AUTO 00000KT 1SM BR VV007 09/08 A2976 RMK AO2 T00860084 10155 20086
KPEZ 131135Z AUTO 00000KT 1/2SM FG VV005 09/09 A2975 RMK AO2 T00900087
KPEZ 131115Z AUTO 00000KT 1/2SM FG VV005 10/10 A2975 RMK AO2 T00990097
KPEZ 131055Z AUTO 00000KT 1/2SM FG VV005 10/10 A2975 RMK AO2 T01010098
KPEZ 131035Z AUTO 31003KT 1/2SM FG VV005 11/11 A2976 RMK AO2 T01080105
KPEZ 131015Z AUTO 00000KT 5SM BR CLR 12/11 A2976 RMK AO2 T01170114
KPEZ 130955Z AUTO 00000KT 5SM BR CLR 12/11 A2976 RMK AO2 T01170112
KPEZ 130935Z AUTO 31003KT 7SM CLR 12/11 A2977 RMK AO2 LTG DSNT E T01170112
KPEZ 130915Z AUTO 00000KT 7SM CLR 12/12 A2977 RMK AO2 LTG DSNT N AND E T01220117
KPEZ 130855Z AUTO 00000KT 7SM CLR 12/12 A2977 RMK AO2 LTG DSNT NE T01200115
KPEZ 130835Z AUTO 00000KT 7SM CLR 13/12 A2977 RMK AO2 LTG DSNT E T01260120
KPEZ 130815Z AUTO 00000KT 10SM CLR 13/12 A2978 RMK AO2 T01310124
KPEZ 130755Z AUTO 00000KT 10SM CLR 13/13 A2979 RMK AO2 LTG DSNT NE AND E T01320125